SBSV/SSA METAR and TAF weather

Enter ICAO airport designator
Station Type Date Time Source
SBSV METAR 2019/08/21 23:00 UTC NOAA

SBSV 212300Z 10007KT 9999 FEW023 25/22 Q1019


Station Type Date Time Source
SBSV Decoded METAR 2019/08/21 23:00 UTC NOAA

Station name not available
Aug 21, 2019 - 07:00 PM EDT / 2019.08.21 2300 UTC
Wind: from the E (100 degrees) at 8 MPH (7 KT):0
Visibility: greater than 7 mile(s):0
Sky conditions: mostly clear
Temperature: 77 F (25 C)
Dew Point: 71 F (22 C)
Relative Humidity: 83%
Pressure (altimeter): 30.09 in. Hg (1019 hPa)
ob: SBSV 212300Z 10007KT 9999 FEW023 25/22 Q1019
cycle: 23

Station Type Date Time Source
SBSV TAF 2019/08/21 18:56 UTC NOAA

TAF SBSV 211600Z 2118/2218 07010KT 9999 SCT020 TN22/2208Z TX27/2214Z
BECMG 2122/2124 12008KT
BECMG 2206/2208 15010KT
BECMG 2211/2213 10008KT
RMK PEH

Example: see airport list